createdAt,value
2018-03-04T00:01:08.136Z,45.70
2018-03-04T00:03:35.207Z,47.33
2018-03-04T00:06:02.231Z,48.20
2018-03-04T00:08:29.336Z,50.60
2018-03-04T00:10:56.335Z,49.87
2018-03-04T00:13:23.374Z,50.57
2018-03-04T00:15:50.425Z,55.37
2018-03-04T00:18:17.372Z,58.27
2018-03-04T00:20:44.417Z,58.87
2018-03-04T00:23:11.472Z,49.07
2018-03-04T00:25:38.514Z,53.17
2018-03-04T00:28:05.563Z,44.03
2018-03-04T00:30:32.617Z,47.57
2018-03-04T00:32:59.661Z,31.13
2018-03-04T00:35:26.726Z,47.87
2018-03-04T00:37:53.761Z,43.13
2018-03-04T00:40:20.805Z,45.80
2018-03-04T00:42:47.803Z,49.67
2018-03-04T00:45:15.110Z,44.20
2018-03-04T00:47:42.154Z,47.13
2018-03-04T00:50:09.209Z,47.77
2018-03-04T00:52:36.366Z,41.03
2018-03-04T00:55:03.402Z,54.73
2018-03-04T00:57:30.451Z,50.30
2018-03-04T00:59:57.506Z,47.30
2018-03-04T01:02:24.582Z,52.43
2018-03-04T01:04:51.596Z,43.27
2018-03-04T01:07:18.761Z,43.27
2018-03-04T01:09:45.741Z,48.93
2018-03-04T01:12:12.952Z,48.50
2018-03-04T01:14:39.995Z,47.77
2018-03-04T01:17:06.993Z,48.77
2018-03-04T01:19:34.403Z,53.83
2018-03-04T01:22:01.397Z,50.17
2018-03-04T01:24:28.398Z,47.93
2018-03-04T01:26:55.749Z,46.23
2018-03-04T01:29:22.797Z,46.77
2018-03-04T01:31:49.850Z,45.70
2018-03-04T01:34:17.001Z,48.07
2018-03-04T01:36:51.013Z,52.93
2018-03-04T01:39:19.184Z,51.43
2018-03-04T01:41:46.233Z,42.07
2018-03-04T01:44:13.287Z,42.80
2018-03-04T01:46:41.454Z,44.30
2018-03-04T01:49:08.514Z,47.53
2018-03-04T01:51:43.131Z,44.47
2018-03-04T01:54:10.182Z,43.43
2018-03-04T01:56:37.225Z,43.93
2018-03-04T01:59:04.275Z,43.80
2018-03-04T02:01:31.329Z,44.30
2018-03-04T02:03:58.324Z,38.13
2018-03-04T02:06:25.420Z,42.83
2018-03-04T02:08:52.473Z,41.17
2018-03-04T02:11:19.513Z,38.27
2018-03-04T02:13:46.565Z,38.43
2018-03-04T02:16:13.618Z,39.67
2018-03-04T02:21:22.149Z,36.63
2018-03-04T02:23:49.201Z,36.87
2018-03-04T02:26:16.245Z,38.67
2018-03-04T02:28:43.296Z,34.90
2018-03-04T02:31:10.287Z,36.50
2018-03-04T02:33:37.290Z,33.03
2018-03-04T02:36:04.236Z,34.97
2018-03-04T02:38:31.283Z,34.67
2018-03-04T02:40:59.047Z,35.90
2018-03-04T02:43:26.104Z,33.90
2018-03-04T02:45:53.149Z,34.90
2018-03-04T02:48:20.144Z,36.37
2018-03-04T02:50:47.144Z,31.50
2018-03-04T02:53:14.604Z,29.90
2018-03-04T02:55:41.648Z,30.67
2018-03-04T02:58:08.702Z,34.43
2018-03-04T03:00:36.256Z,36.73
2018-03-04T03:03:03.361Z,36.47
2018-03-04T03:05:30.351Z,32.07
2018-03-04T03:07:57.400Z,33.60
2018-03-04T03:10:24.453Z,32.87
2018-03-04T03:12:51.497Z,31.70
2018-03-04T03:15:18.544Z,36.27
2018-03-04T03:17:47.334Z,30.73
2018-03-04T03:20:14.334Z,32.90
2018-03-04T03:22:41.271Z,32.53
2018-03-04T03:25:08.281Z,33.67
2018-03-04T03:27:35.337Z,31.10
2018-03-04T03:30:02.377Z,31.93
2018-03-04T03:32:29.425Z,27.23
2018-03-04T03:34:56.469Z,29.10
2018-03-04T03:37:23.516Z,30.80
2018-03-04T03:39:50.569Z,31.33
2018-03-04T03:42:17.614Z,29.13
2018-03-04T03:44:44.661Z,29.50
2018-03-04T03:47:11.608Z,33.73
2018-03-04T03:49:38.655Z,35.17
2018-03-04T03:52:05.708Z,34.47
2018-03-04T03:54:32.752Z,32.80
2018-03-04T03:56:59.800Z,33.63
2018-03-04T03:59:26.856Z,35.13
2018-03-04T04:01:55.058Z,36.23
2018-03-04T04:04:22.481Z,34.77
2018-03-04T04:06:49.580Z,31.90
2018-03-04T04:09:16.578Z,27.87
2018-03-04T04:11:43.631Z,27.63
2018-03-04T04:14:10.681Z,30.00
2018-03-04T04:16:37.671Z,32.87
2018-03-04T04:19:04.676Z,36.27
2018-03-04T04:21:31.718Z,36.07
2018-03-04T04:23:58.768Z,38.03
2018-03-04T04:26:26.127Z,34.47
2018-03-04T04:28:53.212Z,35.60
2018-03-04T04:31:20.220Z,34.40
2018-03-04T04:33:47.272Z,36.80
2018-03-04T04:36:14.315Z,34.40
2018-03-04T04:38:41.364Z,36.77
2018-03-04T04:41:08.356Z,34.10
2018-03-04T04:43:35.364Z,35.50
2018-03-04T04:46:02.412Z,37.30
2018-03-04T04:48:29.455Z,28.47
2018-03-04T04:51:13.638Z,32.30
2018-03-04T04:53:59.988Z,33.60
2018-03-04T04:56:40.881Z,31.47
2018-03-04T04:59:09.473Z,29.67
2018-03-04T05:01:37.434Z,34.17
2018-03-04T05:04:04.483Z,31.63
2018-03-04T05:06:31.536Z,33.57
2018-03-04T05:09:00.423Z,37.77
2018-03-04T05:11:29.417Z,34.83
2018-03-04T05:13:56.464Z,32.53
2018-03-04T05:16:23.518Z,35.57
2018-03-04T05:18:50.562Z,33.63
2018-03-04T05:21:17.613Z,38.60
2018-03-04T05:23:44.664Z,33.43
2018-03-04T05:26:11.707Z,35.83
2018-03-04T05:28:38.754Z,34.73
2018-03-04T05:31:05.809Z,34.40
2018-03-04T05:33:32.797Z,34.87
2018-03-04T05:35:59.803Z,36.97
2018-03-04T05:38:26.846Z,38.43
2018-03-04T05:40:53.843Z,35.83
2018-03-04T05:43:20.845Z,36.83
2018-03-04T05:45:47.793Z,38.23
2018-03-04T05:48:14.841Z,44.97
2018-03-04T05:50:41.886Z,45.33
2018-03-04T05:53:08.938Z,60.20
2018-03-04T05:55:35.980Z,42.83
2018-03-04T05:58:03.029Z,54.30
2018-03-04T06:00:30.087Z,39.73
2018-03-04T06:02:57.123Z,37.93
2018-03-04T06:05:24.274Z,39.57
2018-03-04T06:07:51.734Z,38.27
2018-03-04T06:10:18.733Z,36.50
2018-03-04T06:12:45.729Z,38.60
2018-03-04T06:15:12.778Z,34.97
2018-03-04T06:17:39.831Z,38.80
2018-03-04T06:20:07.488Z,35.53
2018-03-04T06:22:34.536Z,31.40
2018-03-04T06:25:01.593Z,30.60
2018-03-04T06:27:29.662Z,32.77
2018-03-04T06:29:57.217Z,37.23
2018-03-04T06:32:24.271Z,35.77
2018-03-04T06:34:51.314Z,36.73
2018-03-04T06:37:18.367Z,41.53
2018-03-04T06:39:45.416Z,40.63
2018-03-04T06:42:12.460Z,37.83
2018-03-04T06:44:39.508Z,39.83
2018-03-04T06:47:06.564Z,35.37
2018-03-04T06:49:33.604Z,36.43
2018-03-04T06:52:02.399Z,42.27
2018-03-04T06:54:29.442Z,43.10
2018-03-04T06:56:56.490Z,43.40
2018-03-04T06:59:23.545Z,22.73
2018-03-04T07:01:50.586Z,43.67
2018-03-04T07:04:17.637Z,37.97
2018-03-04T07:06:44.997Z,37.30
2018-03-04T07:09:12.146Z,37.53
2018-03-04T07:11:39.167Z,46.20
2018-03-04T07:14:06.341Z,66.67
2018-03-04T07:16:34.315Z,32.00
2018-03-04T07:19:01.368Z,49.60
2018-03-04T07:21:28.406Z,41.70
2018-03-04T07:23:55.457Z,42.10
2018-03-04T07:26:22.511Z,38.73
2018-03-04T07:28:49.552Z,38.87
2018-03-04T07:31:16.602Z,43.23
2018-03-04T07:33:43.591Z,39.83
2018-03-04T07:36:10.596Z,42.33
2018-03-04T07:38:37.649Z,41.27
2018-03-04T07:41:04.694Z,32.13
2018-03-04T07:43:31.584Z,39.17
2018-03-04T07:45:58.585Z,44.40
2018-03-04T07:48:25.640Z,48.10
2018-03-04T07:50:52.685Z,45.40
2018-03-04T07:53:19.731Z,41.27
2018-03-04T07:55:46.792Z,48.27
2018-03-04T07:58:13.827Z,43.43
2018-03-04T08:00:40.977Z,37.67
2018-03-04T08:03:08.028Z,44.10
2018-03-04T08:05:35.079Z,42.13
2018-03-04T08:08:02.124Z,42.83
2018-03-04T08:10:29.274Z,48.13
2018-03-04T08:12:56.226Z,46.17
2018-03-04T08:15:23.168Z,41.90
2018-03-04T08:17:50.113Z,43.27
2018-03-04T08:20:17.160Z,45.30
2018-03-04T08:22:44.215Z,48.97
2018-03-04T08:25:17.095Z,46.73
2018-03-04T08:27:50.082Z,59.33
2018-03-04T08:30:17.132Z,59.10
2018-03-04T08:32:44.585Z,50.60
2018-03-04T08:35:11.538Z,43.83
2018-03-04T08:37:38.588Z,44.50
2018-03-04T08:40:05.949Z,45.63
2018-03-04T08:42:32.992Z,44.63
2018-03-04T08:45:00.230Z,126.97
2018-03-04T08:47:27.295Z,34.43
2018-03-04T08:49:54.338Z,42.03
2018-03-04T08:52:21.394Z,27.43
2018-03-04T08:54:48.389Z,41.07
2018-03-04T08:57:15.483Z,43.70
2018-03-04T08:59:42.538Z,38.63
2018-03-04T09:02:09.581Z,42.57
2018-03-04T09:04:36.630Z,35.20
2018-03-04T09:07:05.880Z,39.17
2018-03-04T09:09:32.919Z,42.70
2018-03-04T09:12:01.226Z,40.00
2018-03-04T09:14:28.207Z,32.17
2018-03-04T09:16:55.251Z,40.60
2018-03-04T09:19:22.865Z,40.03
2018-03-04T09:21:50.066Z,41.50
2018-03-04T09:24:17.119Z,40.60
2018-03-04T09:26:44.161Z,38.77
2018-03-04T09:29:11.211Z,36.40
2018-03-04T09:31:38.265Z,37.87
2018-03-04T09:34:05.348Z,40.70
2018-03-04T09:36:32.356Z,38.07
2018-03-04T09:38:59.917Z,36.80
2018-03-04T09:41:26.965Z,37.67
2018-03-04T09:43:54.023Z,44.83
2018-03-04T09:46:21.062Z,40.87
2018-03-04T09:48:48.110Z,41.03
2018-03-04T09:51:15.164Z,36.53
2018-03-04T09:53:42.206Z,42.47
2018-03-04T09:56:09.256Z,37.97
2018-03-04T09:58:36.202Z,39.77
2018-03-04T10:01:03.251Z,43.40
2018-03-04T10:03:30.708Z,45.90
2018-03-04T10:05:57.767Z,40.10
2018-03-04T10:08:24.804Z,35.03
2018-03-04T10:10:51.758Z,36.57
2018-03-04T10:13:18.751Z,38.90
2018-03-04T10:15:45.802Z,38.37
2018-03-04T10:18:12.794Z,36.13
2018-03-04T10:20:39.844Z,41.20
2018-03-04T10:23:06.897Z,33.67
2018-03-04T10:25:34.144Z,29.67
2018-03-04T10:28:02.005Z,32.27
2018-03-04T10:30:29.061Z,36.40
2018-03-04T10:32:56.929Z,39.63
2018-03-04T10:35:23.978Z,35.43
2018-03-04T10:37:51.031Z,37.17
2018-03-04T10:40:18.024Z,40.20
2018-03-04T10:42:46.497Z,36.60
2018-03-04T10:45:31.347Z,35.90
2018-03-04T10:48:17.520Z,31.33
2018-03-04T10:51:05.385Z,33.23
2018-03-04T10:53:51.977Z,34.40
2018-03-04T10:56:38.099Z,38.13
2018-03-04T11:02:29.105Z,32.23
2018-03-04T11:05:13.356Z,37.13
2018-03-04T11:07:59.410Z,36.37
2018-03-04T11:10:46.078Z,34.13
2018-03-04T11:13:36.541Z,36.27
2018-03-04T11:16:19.069Z,39.07
2018-03-04T11:18:54.127Z,41.00
2018-03-04T11:21:22.367Z,38.70
2018-03-04T11:23:49.419Z,58.13
2018-03-04T11:26:17.432Z,44.80
2018-03-04T11:28:44.509Z,38.40
2018-03-04T11:31:12.843Z,88.33
2018-03-04T11:33:39.970Z,36.77
2018-03-04T11:36:06.911Z,38.90
2018-03-04T11:38:33.961Z,41.57
2018-03-04T11:41:01.015Z,37.87
2018-03-04T11:43:27.953Z,50.50
2018-03-04T11:45:55.009Z,35.97
2018-03-04T11:48:22.051Z,35.23
2018-03-04T11:50:49.100Z,38.73
2018-03-04T11:53:16.191Z,37.43
2018-03-04T11:55:43.304Z,32.87
2018-03-04T11:58:10.348Z,30.97
2018-03-04T12:00:37.396Z,33.17
2018-03-04T12:03:04.451Z,32.03
2018-03-04T12:05:31.494Z,39.17
2018-03-04T12:07:58.550Z,31.83
2018-03-04T12:10:25.595Z,32.73
2018-03-04T12:12:52.639Z,34.80
2018-03-04T12:15:19.687Z,32.30
2018-03-04T12:17:47.146Z,29.80
2018-03-04T12:20:14.199Z,32.17
2018-03-04T12:22:41.659Z,32.27
2018-03-04T12:25:08.700Z,30.33
2018-03-04T12:27:35.761Z,33.13
2018-03-04T12:30:02.803Z,33.00
2018-03-04T12:32:29.796Z,32.20
2018-03-04T12:34:57.817Z,29.57
2018-03-04T12:37:24.872Z,29.03
2018-03-04T12:39:51.858Z,31.90
2018-03-04T12:42:18.866Z,30.93
2018-03-04T12:44:45.908Z,28.93
2018-03-04T12:47:12.860Z,28.90
2018-03-04T12:49:40.627Z,28.20
2018-03-04T12:52:07.671Z,30.47
2018-03-04T12:54:34.717Z,28.67
2018-03-04T12:57:01.776Z,26.37
2018-03-04T12:59:28.923Z,25.57
2018-03-04T13:01:55.919Z,26.87
2018-03-04T13:04:22.919Z,26.40
2018-03-04T13:06:49.966Z,27.10
2018-03-04T13:09:16.962Z,25.13
2018-03-04T13:11:43.955Z,25.53
2018-03-04T13:14:11.105Z,26.83
2018-03-04T13:16:38.155Z,25.53
2018-03-04T13:19:05.054Z,23.27
2018-03-04T13:21:32.056Z,25.70
2018-03-04T13:23:59.402Z,23.37
2018-03-04T13:26:26.452Z,23.93
2018-03-04T13:28:53.506Z,25.73
2018-03-04T13:31:21.675Z,24.60
2018-03-04T13:33:48.729Z,28.13
2018-03-04T13:36:15.775Z,24.77
2018-03-04T13:38:42.821Z,29.17
2018-03-04T13:41:10.280Z,28.57
2018-03-04T13:43:37.332Z,27.13
2018-03-04T13:46:04.581Z,25.90
2018-03-04T13:48:31.636Z,28.93
2018-03-04T13:50:58.684Z,24.07
2018-03-04T13:53:26.084Z,26.70
2018-03-04T13:55:53.088Z,25.07
2018-03-04T13:58:20.546Z,26.80
2018-03-04T14:00:47.590Z,27.33
2018-03-04T14:03:14.900Z,27.13
2018-03-04T14:05:41.893Z,27.30
2018-03-04T14:08:08.941Z,26.43
2018-03-04T14:10:37.865Z,27.03
2018-03-04T14:13:04.879Z,27.57
2018-03-04T14:15:33.158Z,25.43
2018-03-04T14:18:00.211Z,25.23
2018-03-04T14:20:27.255Z,27.23
2018-03-04T14:22:54.308Z,28.87
2018-03-04T14:25:21.460Z,24.83
2018-03-04T14:27:48.563Z,54.90
2018-03-04T14:30:15.552Z,26.50
2018-03-04T14:32:42.604Z,27.07
2018-03-04T14:35:09.657Z,27.57
2018-03-04T14:37:36.702Z,26.30
2018-03-04T14:40:03.747Z,30.00
2018-03-04T14:42:30.897Z,27.00
2018-03-04T14:44:58.019Z,27.43
2018-03-04T14:47:25.010Z,27.67
2018-03-04T14:49:52.350Z,27.47
2018-03-04T14:52:19.807Z,26.57
2018-03-04T14:54:46.862Z,26.13
2018-03-04T14:57:13.905Z,26.03
2018-03-04T14:59:40.954Z,24.53
2018-03-04T15:02:07.900Z,24.90
2018-03-04T15:04:34.947Z,26.17
2018-03-04T15:07:02.004Z,25.70
2018-03-04T15:09:29.046Z,23.50
2018-03-04T15:11:56.044Z,24.00
2018-03-04T15:14:23.349Z,24.43
2018-03-04T15:16:50.396Z,21.83
2018-03-04T15:19:17.633Z,28.07
2018-03-04T15:21:44.909Z,26.63
2018-03-04T15:24:11.951Z,28.73
2018-03-04T15:26:39.000Z,26.77
2018-03-04T15:29:06.561Z,30.60
2018-03-04T15:31:34.276Z,27.47
2018-03-04T15:34:01.280Z,26.73
2018-03-04T15:36:28.321Z,27.73
2018-03-04T15:38:55.320Z,27.73
2018-03-04T15:41:22.521Z,28.23
2018-03-04T15:43:49.575Z,29.33
2018-03-04T15:46:16.725Z,29.27
2018-03-04T15:48:43.768Z,19.07
2018-03-04T15:51:10.818Z,39.83
2018-03-04T15:53:37.968Z,44.43
2018-03-04T15:56:05.026Z,41.10
2018-03-04T15:58:32.481Z,36.87
2018-03-04T16:00:59.526Z,35.10
2018-03-04T16:03:26.573Z,36.27
2018-03-04T16:05:53.627Z,36.93
2018-03-04T16:08:20.670Z,41.47
2018-03-04T16:10:47.690Z,39.67
2018-03-04T16:13:14.617Z,48.37
2018-03-04T16:15:41.615Z,68.23
2018-03-04T16:18:09.147Z,58.60
2018-03-04T16:20:36.166Z,56.47
2018-03-04T16:23:03.166Z,60.83
2018-03-04T16:25:30.221Z,62.97
2018-03-04T16:27:57.266Z,80.83
2018-03-04T16:30:24.263Z,49.17
2018-03-04T16:32:51.260Z,51.70
2018-03-04T16:35:18.306Z,54.50
2018-03-04T16:37:45.251Z,67.43
2018-03-04T16:40:12.303Z,84.10
2018-03-04T16:42:39.356Z,74.87
2018-03-04T16:45:06.397Z,58.63
2018-03-04T16:47:33.448Z,69.60
2018-03-04T16:50:00.501Z,66.13
2018-03-04T16:52:27.544Z,58.17
2018-03-04T16:54:54.593Z,60.47
2018-03-04T16:57:21.647Z,64.40
2018-03-04T16:59:48.690Z,55.43
2018-03-04T17:02:15.738Z,53.43
2018-03-04T17:04:43.200Z,53.50
2018-03-04T17:07:10.249Z,53.73
2018-03-04T17:09:37.294Z,52.57
2018-03-04T17:12:04.650Z,53.37
2018-03-04T17:14:31.640Z,51.80
2018-03-04T17:16:59.469Z,72.43
2018-03-04T17:19:28.254Z,77.93
2018-03-04T17:21:55.813Z,69.07
2018-03-04T17:24:22.866Z,56.00
2018-03-04T17:26:51.246Z,56.07
2018-03-04T17:29:18.312Z,52.60
2018-03-04T17:31:45.344Z,52.43
2018-03-04T17:34:13.104Z,64.00
2018-03-04T17:36:39.987Z,59.73
2018-03-04T17:39:12.739Z,59.93
2018-03-04T17:41:39.779Z,58.30
2018-03-04T17:44:06.827Z,54.90
2018-03-04T17:46:33.888Z,56.43
2018-03-04T17:49:00.924Z,55.07
2018-03-04T17:51:27.974Z,53.43
2018-03-04T17:53:55.026Z,52.10
2018-03-04T17:56:22.070Z,53.63
2018-03-04T17:58:49.221Z,52.60
2018-03-04T18:01:16.373Z,52.03
2018-03-04T18:03:43.423Z,49.43
2018-03-04T18:06:10.474Z,47.67
2018-03-04T18:08:37.518Z,56.60
2018-03-04T18:11:04.564Z,60.70
2018-03-04T18:13:31.623Z,57.30
2018-03-04T18:15:58.663Z,56.47
2018-03-04T18:18:25.710Z,57.73
2018-03-04T18:20:52.777Z,59.03
2018-03-04T18:23:19.807Z,54.17
2018-03-04T18:25:46.856Z,51.13
2018-03-04T18:28:13.911Z,59.30
2018-03-04T18:30:40.955Z,56.30
2018-03-04T18:33:08.003Z,55.90
2018-03-04T18:35:35.154Z,62.17
2018-03-04T18:38:02.230Z,58.37
2018-03-04T18:40:29.250Z,56.53
2018-03-04T18:42:56.249Z,55.27
2018-03-04T18:45:23.354Z,60.30
2018-03-04T18:47:50.505Z,55.97
2018-03-04T18:50:17.547Z,56.50
2018-03-04T18:52:44.596Z,58.70
2018-03-04T18:55:11.745Z,56.80
2018-03-04T18:57:38.800Z,58.50
2018-03-04T19:00:05.844Z,55.00
2018-03-04T19:02:33.411Z,52.10
2018-03-04T19:05:00.454Z,53.87
2018-03-04T19:07:27.760Z,50.93
2018-03-04T19:09:54.754Z,51.63
2018-03-04T19:12:21.803Z,53.50
2018-03-04T19:14:48.856Z,52.17
2018-03-04T19:17:16.112Z,56.10
2018-03-04T19:19:43.160Z,55.27
2018-03-04T19:22:10.201Z,54.13
2018-03-04T19:24:37.153Z,50.90
2018-03-04T19:27:04.197Z,50.53
2018-03-04T19:29:31.247Z,54.63
2018-03-04T19:31:58.299Z,56.17
2018-03-04T19:34:25.353Z,52.37
2018-03-04T19:36:54.444Z,52.80
2018-03-04T19:39:21.487Z,51.57
2018-03-04T19:41:48.534Z,52.03
2018-03-04T19:44:15.590Z,50.27
2018-03-04T19:46:42.531Z,51.47
2018-03-04T19:49:09.583Z,50.87
2018-03-04T19:51:36.628Z,54.73
2018-03-04T19:54:03.676Z,54.53
2018-03-04T19:56:30.669Z,52.20
2018-03-04T19:58:57.678Z,55.47
2018-03-04T20:01:24.722Z,55.00
2018-03-04T20:03:51.665Z,53.53
2018-03-04T20:06:18.662Z,57.63
2018-03-04T20:08:45.761Z,57.03
2018-03-04T20:11:12.812Z,55.93
2018-03-04T20:13:40.173Z,54.13
2018-03-04T20:16:07.218Z,52.83
2018-03-04T20:18:34.678Z,51.30
2018-03-04T20:21:01.722Z,52.00
2018-03-04T20:23:28.720Z,53.30
2018-03-04T20:25:55.720Z,49.73
2018-03-04T20:28:22.771Z,51.63
2018-03-04T20:30:50.020Z,51.50
2018-03-04T20:33:17.076Z,51.27
2018-03-04T20:35:44.227Z,52.03
2018-03-04T20:38:12.699Z,55.60
2018-03-04T20:40:39.759Z,51.37
2018-03-04T20:43:07.519Z,50.13
2018-03-04T20:45:35.074Z,53.10
2018-03-04T20:48:02.128Z,49.70
2018-03-04T20:50:29.171Z,49.40
2018-03-04T20:52:56.528Z,49.97
2018-03-04T20:55:23.580Z,45.93
2018-03-04T20:57:50.625Z,46.27
2018-03-04T21:00:18.543Z,46.50
2018-03-04T21:02:45.541Z,45.90
2018-03-04T21:05:12.588Z,48.27
2018-03-04T21:07:40.761Z,46.93
2018-03-04T21:10:07.816Z,46.40
2018-03-04T21:12:34.867Z,48.30
2018-03-04T21:15:02.016Z,47.47
2018-03-04T21:17:29.009Z,47.87
2018-03-04T21:19:56.012Z,48.63
2018-03-04T21:22:23.055Z,50.57
2018-03-04T21:24:50.103Z,52.63
2018-03-04T21:27:17.156Z,46.40
2018-03-04T21:29:44.201Z,48.00
2018-03-04T21:32:11.247Z,45.90
2018-03-04T21:34:38.301Z,46.93
2018-03-04T21:37:05.293Z,43.07
2018-03-04T21:39:32.496Z,45.83
2018-03-04T21:41:59.544Z,49.27
2018-03-04T21:44:26.613Z,46.37
2018-03-04T21:46:53.642Z,44.20
2018-03-04T21:49:20.798Z,48.07
2018-03-04T21:51:48.455Z,46.07
2018-03-04T21:54:16.367Z,42.70
2018-03-04T21:56:43.372Z,43.70
2018-03-04T21:59:10.367Z,43.27
2018-03-04T22:01:37.576Z,43.27
2018-03-04T22:04:04.620Z,47.63
2018-03-04T22:06:32.231Z,49.33
2018-03-04T22:08:59.229Z,45.23
2018-03-04T22:11:26.279Z,50.23
2018-03-04T22:13:54.252Z,49.47
2018-03-04T22:16:21.296Z,51.23
2018-03-04T22:18:48.292Z,51.13
2018-03-04T22:21:16.364Z,47.77
2018-03-04T22:23:43.363Z,51.30
2018-03-04T22:26:11.130Z,48.00
2018-03-04T22:28:38.280Z,54.70
2018-03-04T22:31:05.277Z,53.57
2018-03-04T22:33:32.273Z,52.20
2018-03-04T22:35:59.327Z,50.60
2018-03-04T22:38:27.702Z,53.33
2018-03-04T22:40:54.756Z,53.97
2018-03-04T22:43:21.808Z,50.30
2018-03-04T22:45:48.846Z,50.30
2018-03-04T22:48:15.901Z,53.23
2018-03-04T22:50:42.945Z,53.00
2018-03-04T22:53:09.994Z,47.43
2018-03-04T22:55:36.939Z,43.13
2018-03-04T22:58:03.986Z,43.87
2018-03-04T23:00:31.042Z,42.90
2018-03-04T23:02:58.084Z,51.57
2018-03-04T23:05:25.136Z,46.27
2018-03-04T23:07:52.186Z,51.87
2018-03-04T23:10:19.236Z,52.57
2018-03-04T23:12:46.282Z,52.03
2018-03-04T23:15:13.333Z,53.60
2018-03-04T23:17:40.337Z,53.07
2018-03-04T23:20:07.426Z,55.43
2018-03-04T23:22:34.479Z,55.40
2018-03-04T23:25:01.472Z,51.00
2018-03-04T23:27:28.671Z,51.60
2018-03-04T23:29:55.720Z,48.47
2018-03-04T23:32:22.773Z,49.60
2018-03-04T23:34:49.816Z,52.23
2018-03-04T23:37:16.969Z,54.80
2018-03-04T23:39:44.015Z,53.07
2018-03-04T23:42:11.070Z,54.27
2018-03-04T23:44:39.239Z,49.07
2018-03-04T23:47:06.294Z,51.00
2018-03-04T23:49:33.338Z,47.77
2018-03-04T23:52:00.388Z,45.10
2018-03-04T23:54:27.439Z,50.57
2018-03-04T23:56:54.482Z,46.17
2018-03-04T23:59:22.555Z,45.90
